createdAt,value
2023-01-13T00:02:43.128Z,28.38
2023-01-13T00:07:34.911Z,24.73
2023-01-13T00:12:26.660Z,26.95
2023-01-13T00:17:18.348Z,22.23
2023-01-13T00:22:10.155Z,21.42
2023-01-13T00:27:01.847Z,21.17
2023-01-13T00:31:54.031Z,19.90
2023-01-13T00:36:45.771Z,19.48
2023-01-13T00:41:56.067Z,20.23
2023-01-13T00:46:47.819Z,16.75
2023-01-13T00:51:39.550Z,21.60
2023-01-13T00:56:40.170Z,18.08
2023-01-13T01:01:33.116Z,20.13
2023-01-13T01:06:26.703Z,21.40
2023-01-13T01:11:22.848Z,21.80
2023-01-13T01:16:17.348Z,22.90
2023-01-13T01:21:09.494Z,22.65
2023-01-13T01:26:02.384Z,20.13
2023-01-13T01:30:55.406Z,22.88
2023-01-13T01:35:47.324Z,31.20
2023-01-13T01:40:39.127Z,21.25
2023-01-13T01:45:31.349Z,22.13
2023-01-13T01:50:23.935Z,23.75
2023-01-13T01:55:37.097Z,18.23
2023-01-13T02:00:29.739Z,19.50
2023-01-13T02:05:22.443Z,19.33
2023-01-13T02:10:17.592Z,16.90
2023-01-13T02:15:13.092Z,17.17
2023-01-13T02:20:04.755Z,19.08
2023-01-13T02:25:15.260Z,16.70
2023-01-13T02:30:50.084Z,18.63
2023-01-13T02:36:06.495Z,17.45
2023-01-13T02:41:23.452Z,17.17
2023-01-13T02:46:27.644Z,14.55
2023-01-13T02:51:24.107Z,17.33
2023-01-13T02:56:17.430Z,16.60
2023-01-13T03:01:09.161Z,17.38
2023-01-13T03:06:33.105Z,18.77
2023-01-13T03:11:31.642Z,16.48
2023-01-13T03:16:27.390Z,13.10
2023-01-13T03:21:39.300Z,17.33
2023-01-13T03:26:45.043Z,15.90
2023-01-13T03:31:44.339Z,17.58
2023-01-13T03:36:38.983Z,14.73
2023-01-13T03:41:36.909Z,17.20
2023-01-13T03:47:00.821Z,16.13
2023-01-13T03:51:56.938Z,12.82
2023-01-13T03:56:54.968Z,15.20
2023-01-13T04:01:57.315Z,16.20
2023-01-13T04:06:56.646Z,14.30
2023-01-13T04:12:13.044Z,12.25
2023-01-13T04:17:05.291Z,10.43
2023-01-13T04:21:56.990Z,17.38
2023-01-13T04:26:48.721Z,13.82
2023-01-13T04:31:40.957Z,12.48
2023-01-13T04:36:32.650Z,15.05
2023-01-13T04:41:24.454Z,13.20
2023-01-13T04:46:16.162Z,15.38
2023-01-13T04:51:07.870Z,17.42
2023-01-13T04:55:59.517Z,12.82
2023-01-13T05:00:51.688Z,14.52
2023-01-13T05:05:43.485Z,13.07
2023-01-13T05:10:35.179Z,14.18
2023-01-13T05:15:45.472Z,16.13
2023-01-13T05:20:37.212Z,14.27
2023-01-13T05:25:29.214Z,16.95
2023-01-13T05:30:22.995Z,15.00
2023-01-13T05:35:16.216Z,18.70
2023-01-13T05:40:27.692Z,14.73
2023-01-13T05:45:19.361Z,14.93
2023-01-13T05:50:11.467Z,14.55
2023-01-13T05:55:03.377Z,14.98
2023-01-13T05:59:55.164Z,14.35
2023-01-13T06:04:46.917Z,11.45
2023-01-13T06:09:38.626Z,16.55
2023-01-13T06:14:40.146Z,17.25
2023-01-13T06:19:31.911Z,16.40
2023-01-13T06:24:23.545Z,16.25
2023-01-13T06:29:17.032Z,18.35
2023-01-13T06:34:13.387Z,17.48
2023-01-13T06:39:05.930Z,18.20
2023-01-13T06:43:57.635Z,21.00
2023-01-13T06:48:49.279Z,17.80
2023-01-13T06:53:41.011Z,14.23
2023-01-13T06:58:32.730Z,17.30
2023-01-13T07:03:24.403Z,17.75
2023-01-13T07:08:16.113Z,17.73
2023-01-13T07:13:26.223Z,12.55
2023-01-13T07:18:17.899Z,15.80
2023-01-13T07:23:09.579Z,16.73
2023-01-13T07:28:01.213Z,21.85
2023-01-13T07:32:52.881Z,16.77
2023-01-13T07:37:44.640Z,20.88
2023-01-13T07:42:56.871Z,19.15
2023-01-13T07:47:52.472Z,20.05
2023-01-13T07:52:44.130Z,21.77
2023-01-13T07:57:35.876Z,23.80
2023-01-13T08:02:28.559Z,22.85
2023-01-13T08:07:20.386Z,22.55
2023-01-13T08:12:30.749Z,23.38
2023-01-13T08:17:22.428Z,22.10
2023-01-13T08:22:14.483Z,19.73
2023-01-13T08:27:06.235Z,21.25
2023-01-13T08:31:57.981Z,21.98
2023-01-13T08:36:50.588Z,22.85
2023-01-13T08:41:55.919Z,27.83
2023-01-13T08:46:47.695Z,33.15
2023-01-13T08:51:39.481Z,27.92
2023-01-13T08:56:35.032Z,25.30
2023-01-13T09:01:27.785Z,25.55
2023-01-13T09:06:19.828Z,25.13
2023-01-13T09:11:43.609Z,29.38
2023-01-13T09:16:35.281Z,25.63
2023-01-13T09:21:27.462Z,34.30
2023-01-13T09:26:21.195Z,36.88
2023-01-13T09:31:13.462Z,35.38
2023-01-13T09:36:05.680Z,40.05
2023-01-13T09:40:57.438Z,47.92
2023-01-13T09:46:01.773Z,50.60
2023-01-13T09:50:59.976Z,50.80
2023-01-13T09:55:53.013Z,48.78
2023-01-13T10:00:50.673Z,50.03
2023-01-13T10:05:44.982Z,50.73
2023-01-13T10:10:55.328Z,55.55
2023-01-13T10:16:01.971Z,48.58
2023-01-13T10:21:22.393Z,50.97
2023-01-13T10:26:25.299Z,43.78
2023-01-13T10:31:17.766Z,49.05
2023-01-13T10:36:12.463Z,49.40
2023-01-13T10:41:20.549Z,49.00
2023-01-13T10:46:18.216Z,46.23
2023-01-13T10:51:18.854Z,46.90
2023-01-13T10:56:17.114Z,56.35
2023-01-13T11:01:26.109Z,44.05
2023-01-13T11:06:29.941Z,47.92
2023-01-13T11:11:35.227Z,44.65
2023-01-13T11:16:28.371Z,51.75
2023-01-13T11:21:29.870Z,57.13
2023-01-13T11:26:27.500Z,39.35
2023-01-13T11:31:33.826Z,43.47
2023-01-13T11:36:31.655Z,46.05
2023-01-13T11:41:28.984Z,53.97
2023-01-13T11:46:26.002Z,60.33
2023-01-13T11:51:29.637Z,59.80
2023-01-13T11:56:33.653Z,60.33
2023-01-13T12:01:50.145Z,62.60
2023-01-13T12:06:43.604Z,62.45
2023-01-13T12:12:17.424Z,58.17
2023-01-13T12:17:26.271Z,65.45
2023-01-13T12:27:30.159Z,62.33
2023-01-13T12:32:33.519Z,64.95
2023-01-13T12:37:32.829Z,63.25
2023-01-13T12:43:03.080Z,63.85
2023-01-13T12:47:55.677Z,60.20
2023-01-13T12:52:48.482Z,63.25
2023-01-13T12:57:54.494Z,55.63
2023-01-13T13:03:10.995Z,59.33
2023-01-13T13:08:11.860Z,57.42
2023-01-13T13:13:20.186Z,57.15
2023-01-13T13:18:17.632Z,57.40
2023-01-13T13:23:48.417Z,60.42
2023-01-13T13:28:49.129Z,55.13
2023-01-13T13:33:50.025Z,52.63
2023-01-13T13:39:17.399Z,59.20
2023-01-13T13:44:56.018Z,52.13
2023-01-13T13:49:53.505Z,49.50
2023-01-13T13:54:49.479Z,51.22
2023-01-13T13:59:41.266Z,54.05
2023-01-13T14:04:35.628Z,56.97
2023-01-13T14:09:39.689Z,56.55
2023-01-13T14:14:31.392Z,57.33
2023-01-13T14:19:35.081Z,57.13
2023-01-13T14:24:27.216Z,51.13
2023-01-13T14:29:23.871Z,55.90
2023-01-13T14:34:32.589Z,57.75
2023-01-13T14:39:33.010Z,55.53
2023-01-13T14:44:32.283Z,57.33
2023-01-13T14:49:32.062Z,59.72
2023-01-13T14:54:42.531Z,58.47
2023-01-13T14:59:40.209Z,57.13
2023-01-13T15:04:37.506Z,63.03
2023-01-13T15:09:38.891Z,52.83
2023-01-13T15:14:34.835Z,60.72
2023-01-13T15:19:26.577Z,59.63
2023-01-13T15:24:18.260Z,61.13
2023-01-13T15:29:15.248Z,61.63
2023-01-13T15:34:06.946Z,62.80
2023-01-13T15:39:00.130Z,57.92
2023-01-13T15:44:10.521Z,61.92
2023-01-13T15:49:09.883Z,60.72
2023-01-13T15:54:02.565Z,62.67
2023-01-13T15:58:54.891Z,68.47
2023-01-13T16:03:46.587Z,71.70
2023-01-13T16:08:38.277Z,65.22
2023-01-13T16:13:29.924Z,65.00
2023-01-13T16:18:26.498Z,68.55
2023-01-13T16:23:18.714Z,60.05
2023-01-13T16:28:20.419Z,73.97
2023-01-13T16:33:12.389Z,70.55
2023-01-13T16:38:04.137Z,68.85
2023-01-13T16:42:57.078Z,75.47
2023-01-13T16:47:49.214Z,66.68
2023-01-13T16:52:40.845Z,75.45
2023-01-13T16:57:32.602Z,73.63
2023-01-13T17:02:24.825Z,70.53
2023-01-13T17:07:17.085Z,76.07
2023-01-13T17:12:10.434Z,72.95
2023-01-13T17:17:02.120Z,73.70
2023-01-13T17:21:53.888Z,69.20
2023-01-13T17:26:50.975Z,65.43
2023-01-13T17:31:42.900Z,71.72
2023-01-13T17:36:34.657Z,73.78
2023-01-13T17:41:26.754Z,75.00
2023-01-13T17:46:19.953Z,64.63
2023-01-13T17:51:14.060Z,59.70
2023-01-13T17:56:06.752Z,64.93
2023-01-13T18:00:58.531Z,61.03
2023-01-13T18:05:50.346Z,58.03
2023-01-13T18:10:42.117Z,59.83
2023-01-13T18:15:33.777Z,59.05
2023-01-13T18:20:44.197Z,66.22
2023-01-13T18:25:54.172Z,54.70
2023-01-13T18:30:45.998Z,55.90
2023-01-13T18:35:40.523Z,53.55
2023-01-13T18:40:32.253Z,55.08
2023-01-13T18:45:26.446Z,59.10
2023-01-13T18:50:18.850Z,56.80
2023-01-13T18:55:10.586Z,71.75
2023-01-13T19:00:02.976Z,62.05
2023-01-13T19:04:54.698Z,58.60
2023-01-13T19:09:46.499Z,60.30
2023-01-13T19:14:38.282Z,64.22
2023-01-13T19:19:30.186Z,64.22
2023-01-13T19:24:22.461Z,57.03
2023-01-13T19:29:14.521Z,58.80
2023-01-13T19:34:06.197Z,61.38
2023-01-13T19:38:59.102Z,57.42
2023-01-13T19:44:29.129Z,55.05
2023-01-13T19:49:20.825Z,54.20
2023-01-13T19:54:12.563Z,58.95
2023-01-13T19:59:04.367Z,62.20
2023-01-13T20:04:02.791Z,59.90
2023-01-13T20:08:54.448Z,59.00
2023-01-13T20:13:46.179Z,61.00
2023-01-13T20:18:37.996Z,62.15
2023-01-13T20:23:29.739Z,61.35
2023-01-13T20:28:21.549Z,65.28
2023-01-13T20:33:13.832Z,58.70
2023-01-13T20:38:06.300Z,63.88
2023-01-13T20:42:58.036Z,58.17
2023-01-13T20:47:49.772Z,57.92
2023-01-13T20:52:43.277Z,60.22
2023-01-13T20:57:35.642Z,64.68
2023-01-13T21:02:27.354Z,55.88
2023-01-13T21:07:19.048Z,60.28
2023-01-13T21:12:33.362Z,58.28
2023-01-13T21:17:43.730Z,53.20
2023-01-13T21:22:36.101Z,47.85
2023-01-13T21:27:29.422Z,48.70
2023-01-13T21:32:21.247Z,47.33
2023-01-13T21:37:14.808Z,44.30
2023-01-13T21:42:25.074Z,46.00
2023-01-13T21:47:37.624Z,42.60
2023-01-13T21:52:29.406Z,46.92
2023-01-13T21:57:21.081Z,49.38
2023-01-13T22:02:28.810Z,46.90
2023-01-13T22:07:21.213Z,47.40
2023-01-13T22:12:12.984Z,39.38
2023-01-13T22:17:04.641Z,31.60
2023-01-13T22:21:57.165Z,29.65
2023-01-13T22:26:48.825Z,31.45
2023-01-13T22:31:40.532Z,25.92
2023-01-13T22:36:32.248Z,26.73
2023-01-13T22:41:24.055Z,23.40
2023-01-13T22:46:15.923Z,25.63
2023-01-13T22:51:12.946Z,26.35
2023-01-13T22:56:05.484Z,22.02
2023-01-13T23:01:07.385Z,23.77
2023-01-13T23:05:59.467Z,20.92
2023-01-13T23:10:51.330Z,19.92
2023-01-13T23:15:43.132Z,19.88
2023-01-13T23:20:34.829Z,20.02
2023-01-13T23:25:26.825Z,25.25
2023-01-13T23:30:18.634Z,23.38
2023-01-13T23:35:10.288Z,19.85
2023-01-13T23:40:02.562Z,20.95
2023-01-13T23:44:54.319Z,18.95
2023-01-13T23:49:45.950Z,24.02
2023-01-13T23:54:37.733Z,18.20
2023-01-13T23:59:29.543Z,18.38
